Time;durP1;ratioP1;P1;durP2;ratioP2;P2;SDS_P1;SDS_P2;PMS_P1;PMS_P2;Temp;Humidity;BMP_temperature;BMP_pressure;BME280_temperature;BME280_humidity;BME280_pressure;Samples;Min_cycle;Max_cycle;Signal;HPM_P1;HPM_P2
2021/08/14 00:01:24;;;;;;;5.53;2.65;;;12.60;63.90;;;;;;5008110;28;20461;-68
2021/08/14 00:03:51;;;;;;;3.38;1.98;;;12.50;64.00;;;;;;5009653;28;20022;-70
2021/08/14 00:06:17;;;;;;;3.85;2.33;;;12.50;63.70;;;;;;5010215;28;20113;-70
2021/08/14 00:08:45;;;;;;;9.25;3.20;;;12.50;63.30;;;;;;5011974;28;20109;-70
2021/08/14 00:11:12;;;;;;;4.57;2.28;;;12.60;63.60;;;;;;5007665;28;20045;-70
2021/08/14 00:13:38;;;;;;;5.30;2.92;;;12.60;63.10;;;;;;5011122;28;20053;-71
2021/08/14 00:16:06;;;;;;;3.25;2.28;;;12.60;63.30;;;;;;5012500;28;20025;-70
2021/08/14 00:18:32;;;;;;;9.05;4.45;;;12.60;63.60;;;;;;5013577;28;20013;-70
2021/08/14 00:20:59;;;;;;;8.82;2.28;;;12.50;63.50;;;;;;5014763;28;20065;-70
2021/08/14 00:23:25;;;;;;;4.07;2.42;;;12.60;63.90;;;;;;5010715;28;20113;-70
2021/08/14 00:25:52;;;;;;;5.88;2.47;;;12.50;63.80;;;;;;5017292;28;20492;-69
2021/08/14 00:28:18;;;;;;;2.80;2.40;;;12.50;63.90;;;;;;5016621;28;20746;-70
2021/08/14 00:30:45;;;;;;;6.10;2.38;;;12.50;63.90;;;;;;5016876;28;20022;-71
2021/08/14 00:33:11;;;;;;;4.85;2.03;;;12.50;64.60;;;;;;5015042;28;20018;-70
2021/08/14 00:35:38;;;;;;;4.63;2.15;;;12.40;64.60;;;;;;5013978;28;20010;-70
2021/08/14 00:38:05;;;;;;;4.18;2.22;;;12.40;64.20;;;;;;5011420;28;20026;-70
2021/08/14 00:40:31;;;;;;;4.68;2.58;;;12.40;64.30;;;;;;5013154;28;20018;-70
2021/08/14 00:42:58;;;;;;;2.97;2.10;;;12.30;64.30;;;;;;5012723;28;20486;-69
2021/08/14 00:45:24;;;;;;;4.13;1.75;;;12.30;64.40;;;;;;5014814;28;20121;-69
2021/08/14 00:47:51;;;;;;;5.57;1.67;;;12.30;64.60;;;;;;5015429;28;20076;-70
2021/08/14 00:50:18;;;;;;;3.08;1.60;;;12.20;64.60;;;;;;5013421;28;20377;-70
2021/08/14 00:52:44;;;;;;;5.65;2.22;;;12.20;64.50;;;;;;5016994;28;20029;-69
2021/08/14 00:55:12;;;;;;;2.70;1.95;;;12.20;64.70;;;;;;5014888;28;21332;-69
2021/08/14 00:57:40;;;;;;;7.78;2.28;;;12.20;64.60;;;;;;5011032;28;20010;-70
2021/08/14 01:00:08;;;;;;;3.13;1.80;;;12.20;64.70;;;;;;5010941;28;20026;-69
2021/08/14 01:02:35;;;;;;;6.25;1.77;;;12.30;64.70;;;;;;5013113;28;20627;-68
2021/08/14 01:05:02;;;;;;;5.22;1.98;;;12.30;64.60;;;;;;5014707;28;20014;-68
2021/08/14 01:07:28;;;;;;;4.93;2.28;;;12.30;64.70;;;;;;5012420;28;20064;-69
2021/08/14 01:09:54;;;;;;;4.60;1.83;;;12.20;64.60;;;;;;5014178;28;20503;-69
2021/08/14 01:12:21;;;;;;;5.32;2.83;;;12.30;64.40;;;;;;5010517;28;20575;-68
2021/08/14 01:14:49;;;;;;;8.23;2.55;;;12.30;64.40;;;;;;5014416;28;20045;-68
2021/08/14 01:17:16;;;;;;;5.15;2.00;;;12.20;64.40;;;;;;5024689;28;20022;-68
2021/08/14 01:19:44;;;;;;;3.20;1.80;;;12.20;64.60;;;;;;5015478;28;20481;-68
2021/08/14 01:22:15;;;;;;;4.93;3.13;;;12.20;64.40;;;;;;5015213;28;20033;-68
2021/08/14 01:24:45;;;;;;;3.28;2.33;;;12.20;64.40;;;;;;5012060;28;20044;-68
2021/08/14 01:27:13;;;;;;;3.35;2.10;;;12.10;64.80;;;;;;5012112;28;20010;-68
2021/08/14 01:29:40;;;;;;;4.03;1.65;;;12.00;65.20;;;;;;5015095;28;20034;-68
2021/08/14 01:32:10;;;;;;;6.72;2.20;;;12.00;65.30;;;;;;5010840;28;20021;-69
2021/08/14 01:34:38;;;;;;;4.05;1.80;;;12.00;65.40;;;;;;5011166;28;20010;-68
2021/08/14 01:37:06;;;;;;;2.60;1.60;;;12.00;65.50;;;;;;5013053;28;20018;-68
2021/08/14 01:39:33;;;;;;;2.75;1.88;;;12.10;65.50;;;;;;5019462;28;20136;-68
2021/08/14 01:42:07;;;;;;;3.80;1.95;;;12.10;65.50;;;;;;5012688;28;20118;-68
2021/08/14 01:44:35;;;;;;;3.60;1.90;;;12.10;65.90;;;;;;5009420;28;20034;-70
2021/08/14 01:47:02;;;;;;;6.20;2.45;;;12.00;66.10;;;;;;5016253;28;20034;-68
2021/08/14 01:49:29;;;;;;;6.13;2.17;;;12.00;66.40;;;;;;5012384;28;20472;-69
2021/08/14 01:51:55;;;;;;;8.38;2.22;;;12.00;66.70;;;;;;4998719;28;20117;-68
2021/08/14 01:54:22;;;;;;;4.78;2.05;;;12.00;66.80;;;;;;5016785;28;20026;-68
2021/08/14 01:56:51;;;;;;;6.05;2.17;;;12.00;66.50;;;;;;5013939;28;20045;-69
2021/08/14 01:59:18;;;;;;;5.20;2.50;;;12.00;66.40;;;;;;5010865;28;20108;-68
2021/08/14 02:01:45;;;;;;;3.15;1.80;;;12.00;66.10;;;;;;5013246;28;20116;-69
2021/08/14 02:04:11;;;;;;;1.98;1.85;;;12.00;66.00;;;;;;5012717;28;20030;-69
2021/08/14 02:06:38;;;;;;;3.78;1.98;;;12.00;65.80;;;;;;5012432;28;20484;-69
2021/08/14 02:09:04;;;;;;;3.92;2.17;;;12.00;66.00;;;;;;5009994;28;20025;-68
2021/08/14 02:11:35;;;;;;;7.32;2.50;;;11.90;66.60;;;;;;5015364;28;20066;-69
2021/08/14 02:14:03;;;;;;;6.40;3.58;;;11.80;66.90;;;;;;5012723;28;20496;-69
2021/08/14 02:16:30;;;;;;;4.57;2.10;;;11.70;67.00;;;;;;5012588;28;20097;-69
2021/08/14 02:19:00;;;;;;;4.57;3.45;;;11.70;67.40;;;;;;4991763;28;20056;-72
2021/08/14 02:21:28;;;;;;;5.78;2.70;;;11.70;67.80;;;;;;5009383;28;21890;-70
2021/08/14 02:23:55;;;;;;;6.18;2.17;;;11.60;67.90;;;;;;5017419;28;20064;-73
2021/08/14 02:26:22;;;;;;;9.75;3.00;;;11.50;68.20;;;;;;5013569;28;20057;-70
2021/08/14 02:28:49;;;;;;;6.25;2.60;;;11.50;68.80;;;;;;5012336;28;20371;-70
2021/08/14 02:31:15;;;;;;;5.38;2.85;;;11.50;68.80;;;;;;4994600;28;20361;-69
2021/08/14 02:33:42;;;;;;;5.57;2.35;;;11.50;69.00;;;;;;5012831;28;20408;-69
2021/08/14 02:36:10;;;;;;;5.00;2.97;;;11.50;69.10;;;;;;5012594;28;20539;-70
2021/08/14 02:38:38;;;;;;;4.18;2.15;;;11.40;68.60;;;;;;5009363;28;20010;-68
2021/08/14 02:41:06;;;;;;;8.18;2.45;;;11.50;68.60;;;;;;5002450;28;20038;-68
2021/08/14 02:43:32;;;;;;;2.17;1.70;;;11.50;68.50;;;;;;5011070;28;20380;-70
2021/08/14 02:46:02;;;;;;;5.47;3.00;;;11.50;68.30;;;;;;5011155;28;20099;-70
2021/08/14 02:48:29;;;;;;;6.28;2.58;;;11.60;68.20;;;;;;5012971;28;20041;-70
2021/08/14 02:50:55;;;;;;;19.45;11.18;;;11.50;67.90;;;;;;5011136;28;20022;-69
2021/08/14 02:53:22;;;;;;;12.27;6.70;;;11.60;68.00;;;;;;5010389;28;20113;-71
2021/08/14 02:55:49;;;;;;;5.28;3.22;;;11.50;67.90;;;;;;5014131;28;20022;-71
2021/08/14 02:58:16;;;;;;;6.68;2.67;;;11.50;68.10;;;;;;5011689;28;20017;-71
2021/08/14 03:00:42;;;;;;;4.53;2.85;;;11.50;68.30;;;;;;5013468;28;20030;-71
2021/08/14 03:03:08;;;;;;;6.72;2.75;;;11.40;68.40;;;;;;5010217;28;21066;-70
2021/08/14 03:05:35;;;;;;;8.75;2.55;;;11.50;68.90;;;;;;5014998;28;20079;-71
2021/08/14 03:08:01;;;;;;;4.55;2.17;;;11.50;68.80;;;;;;5010846;28;20022;-70
2021/08/14 03:10:28;;;;;;;4.85;2.40;;;11.50;68.60;;;;;;5014766;28;20061;-71
2021/08/14 03:12:54;;;;;;;12.65;3.85;;;11.50;68.70;;;;;;5011949;28;20073;-71
2021/08/14 03:15:21;;;;;;;6.30;2.60;;;11.50;69.10;;;;;;5011514;28;20025;-70
2021/08/14 03:17:51;;;;;;;6.90;3.60;;;11.60;69.30;;;;;;5014843;28;20174;-70
2021/08/14 03:20:18;;;;;;;3.45;2.00;;;11.60;69.30;;;;;;5010337;28;20037;-70
2021/08/14 03:22:44;;;;;;;3.47;2.03;;;11.50;69.30;;;;;;5014576;28;20116;-71
2021/08/14 03:25:11;;;;;;;6.15;2.97;;;11.60;69.50;;;;;;5012828;28;20389;-70
2021/08/14 03:27:37;;;;;;;4.53;2.35;;;11.60;69.50;;;;;;4995274;28;20033;-70
2021/08/14 03:30:05;;;;;;;6.88;2.15;;;11.60;69.30;;;;;;4992611;28;20372;-70
2021/08/14 03:32:32;;;;;;;7.60;3.30;;;11.50;69.20;;;;;;5011655;28;20095;-70
2021/08/14 03:34:58;;;;;;;8.02;3.25;;;11.50;69.20;;;;;;5010591;28;20457;-72
2021/08/14 03:37:25;;;;;;;3.50;2.40;;;11.50;69.00;;;;;;5011226;28;20465;-72
2021/08/14 03:39:51;;;;;;;4.15;2.47;;;11.50;69.20;;;;;;5012253;28;20033;-71
2021/08/14 03:42:17;;;;;;;18.40;11.90;;;11.50;69.50;;;;;;5009257;28;20359;-70
2021/08/14 03:44:44;;;;;;;30.30;20.88;;;11.50;69.60;;;;;;5013307;28;20045;-69
2021/08/14 03:47:10;;;;;;;7.15;5.93;;;11.50;70.80;;;;;;5017793;28;20092;-72
2021/08/14 03:49:37;;;;;;;5.20;3.00;;;11.50;69.90;;;;;;5012797;28;20026;-72
2021/08/14 03:52:04;;;;;;;4.97;2.08;;;11.50;69.80;;;;;;5011824;28;20041;-71
2021/08/14 03:54:30;;;;;;;6.07;2.30;;;11.50;69.90;;;;;;5007311;28;20026;-71
2021/08/14 03:56:57;;;;;;;3.00;2.08;;;11.40;70.00;;;;;;5015671;28;20425;-71
2021/08/14 03:59:23;;;;;;;4.53;2.53;;;11.40;70.20;;;;;;5009927;28;20053;-72
2021/08/14 04:01:50;;;;;;;4.22;3.42;;;11.30;70.40;;;;;;5014566;28;20033;-69
2021/08/14 04:04:16;;;;;;;4.78;2.33;;;11.30;70.30;;;;;;5014366;28;20420;-71
2021/08/14 04:06:43;;;;;;;4.13;2.67;;;11.20;70.50;;;;;;5020243;28;20377;-71
2021/08/14 04:09:09;;;;;;;6.57;2.83;;;11.20;70.80;;;;;;4999068;28;20437;-72
2021/08/14 04:11:35;;;;;;;5.22;3.70;;;11.20;70.90;;;;;;5015489;28;20052;-71
2021/08/14 04:14:02;;;;;;;6.07;2.80;;;11.10;70.40;;;;;;5015764;28;20021;-69
2021/08/14 04:16:28;;;;;;;7.72;3.10;;;11.10;70.40;;;;;;4990744;28;20030;-71
2021/08/14 04:18:55;;;;;;;6.55;2.58;;;11.10;70.80;;;;;;5015337;28;20028;-71
2021/08/14 04:21:21;;;;;;;5.90;2.40;;;11.00;70.90;;;;;;5013720;28;20065;-71
2021/08/14 04:23:48;;;;;;;4.13;1.65;;;10.90;71.20;;;;;;5020313;28;20380;-71
2021/08/14 04:26:14;;;;;;;3.55;2.40;;;10.90;71.20;;;;;;5014727;28;20109;-70
2021/08/14 04:28:41;;;;;;;4.80;2.60;;;10.90;71.20;;;;;;5016050;28;20025;-69
2021/08/14 04:31:07;;;;;;;5.63;2.35;;;11.00;71.10;;;;;;5020980;28;20029;-70
2021/08/14 04:34:13;;;;;;;7.07;2.95;;;11.00;71.20;;;;;;5010956;28;20022;-71
2021/08/14 04:37:19;;;;;;;42.28;27.58;;;11.00;71.30;;;;;;5012249;28;20101;-70
2021/08/14 04:40:25;;;;;;;10.98;5.20;;;11.00;71.60;;;;;;5013874;28;20018;-70
2021/08/14 04:43:35;;;;;;;3.97;2.15;;;11.10;71.10;;;;;;5011624;28;20087;-70
2021/08/14 04:46:41;;;;;;;2.40;2.08;;;11.10;70.90;;;;;;5011990;28;20052;-71
2021/08/14 04:49:47;;;;;;;3.30;2.60;;;11.10;71.00;;;;;;5012353;28;20101;-68
2021/08/14 04:52:14;;;;;;;7.07;2.90;;;11.00;70.80;;;;;;5012495;28;20057;-71
2021/08/14 04:54:41;;;;;;;8.13;2.20;;;11.00;70.70;;;;;;5012053;28;20026;-71
2021/08/14 04:57:07;;;;;;;5.03;2.10;;;11.00;70.70;;;;;;5012364;28;20392;-71
2021/08/14 04:59:34;;;;;;;3.35;1.85;;;10.90;70.80;;;;;;5012317;28;20020;-71
2021/08/14 05:02:40;;;;;;;4.95;2.17;;;10.90;70.80;;;;;;4985840;28;20030;-69
2021/08/14 05:05:07;;;;;;;9.70;4.28;;;10.90;71.00;;;;;;5011319;28;20053;-69
2021/08/14 05:07:35;;;;;;;4.68;3.63;;;10.80;71.10;;;;;;5011804;28;20469;-71
2021/08/14 05:10:03;;;;;;;8.90;3.50;;;10.80;71.70;;;;;;5014221;28;20507;-70
2021/08/14 05:12:33;;;;;;;5.07;2.95;;;10.80;71.80;;;;;;5008939;28;20042;-72
2021/08/14 05:15:03;;;;;;;5.82;2.78;;;10.70;71.90;;;;;;5013625;28;20021;-71
2021/08/14 05:17:30;;;;;;;5.75;3.15;;;10.80;71.90;;;;;;5009092;28;20022;-68
2021/08/14 05:19:56;;;;;;;4.30;2.72;;;10.70;71.90;;;;;;5012852;28;20014;-69
2021/08/14 05:22:23;;;;;;;6.22;2.90;;;10.70;72.00;;;;;;5012623;28;20108;-69
2021/08/14 05:24:50;;;;;;;7.47;2.42;;;10.60;72.40;;;;;;5010714;28;20384;-67
2021/08/14 05:27:16;;;;;;;8.63;2.92;;;10.60;72.60;;;;;;5012579;28;20018;-68
2021/08/14 05:29:43;;;;;;;8.15;2.88;;;10.60;72.70;;;;;;5011092;28;20021;-69
2021/08/14 05:32:10;;;;;;;4.72;2.53;;;10.60;72.90;;;;;;5009844;28;20037;-70
2021/08/14 05:34:36;;;;;;;12.00;3.45;;;10.60;72.90;;;;;;5011818;28;20022;-68
2021/08/14 05:37:03;;;;;;;6.78;2.40;;;10.60;73.10;;;;;;5011967;28;20028;-68
2021/08/14 05:39:29;;;;;;;15.02;11.10;;;10.60;73.10;;;;;;5010912;28;20018;-67
2021/08/14 05:41:56;;;;;;;16.52;10.95;;;10.70;73.10;;;;;;5013479;28;20033;-68
2021/08/14 05:44:22;;;;;;;15.68;4.95;;;10.70;72.80;;;;;;5013654;28;20040;-67
2021/08/14 05:46:49;;;;;;;4.47;2.80;;;10.70;73.00;;;;;;5017883;28;20022;-72
2021/08/14 05:49:15;;;;;;;4.15;2.17;;;10.70;72.60;;;;;;5019075;28;20043;-69
2021/08/14 05:51:42;;;;;;;6.13;2.47;;;10.70;72.40;;;;;;5013216;28;20106;-71
2021/08/14 05:54:08;;;;;;;4.72;2.75;;;10.70;72.40;;;;;;5012344;28;20022;-69
2021/08/14 05:56:36;;;;;;;7.30;2.92;;;10.80;73.00;;;;;;5012457;28;20018;-68
2021/08/14 05:59:42;;;;;;;10.07;4.55;;;10.80;74.20;;;;;;5008467;28;20505;-69
2021/08/14 06:02:48;;;;;;;15.82;7.32;;;10.90;73.80;;;;;;5011180;28;20042;-67
2021/08/14 06:05:54;;;;;;;9.30;3.92;;;10.90;73.50;;;;;;5007366;28;20488;-68
2021/08/14 06:08:20;;;;;;;12.40;3.47;;;11.00;73.20;;;;;;5011096;28;20093;-71
2021/08/14 06:10:47;;;;;;;5.28;2.95;;;11.00;73.10;;;;;;5017995;28;20025;-70
2021/08/14 06:13:13;;;;;;;8.48;3.00;;;11.10;73.00;;;;;;5016112;28;20097;-68
2021/08/14 06:15:40;;;;;;;4.35;2.75;;;11.10;72.90;;;;;;5009866;28;20045;-68
2021/08/14 06:18:06;;;;;;;6.47;2.83;;;11.10;73.10;;;;;;5016549;28;20014;-70
2021/08/14 06:20:33;;;;;;;5.40;2.67;;;11.10;73.00;;;;;;5016540;28;20021;-69
2021/08/14 06:22:59;;;;;;;4.22;2.78;;;11.10;73.00;;;;;;5013390;28;20025;-68
2021/08/14 06:25:26;;;;;;;5.00;2.80;;;11.10;73.10;;;;;;5011242;28;20006;-68
2021/08/14 06:27:52;;;;;;;6.10;3.15;;;11.10;73.20;;;;;;5010491;28;20480;-69
2021/08/14 06:30:19;;;;;;;12.93;4.68;;;11.10;73.30;;;;;;5016043;28;20033;-69
2021/08/14 06:32:45;;;;;;;5.43;3.72;;;11.10;73.60;;;;;;5019465;28;20018;-69
2021/08/14 06:35:12;;;;;;;9.65;4.03;;;11.10;74.60;;;;;;5013345;28;20014;-69
2021/08/14 06:37:45;;;;;;;7.40;2.95;;;11.20;74.20;;;;;;5014608;28;20404;-68
2021/08/14 06:40:13;;;;;;;6.80;2.65;;;11.20;73.80;;;;;;5007913;28;20018;-68
2021/08/14 06:42:39;;;;;;;7.28;2.20;;;11.20;73.70;;;;;;5012755;28;20030;-68
2021/08/14 06:45:07;;;;;;;5.13;2.50;;;11.20;73.70;;;;;;5014118;28;20109;-72
2021/08/14 06:47:34;;;;;;;5.40;2.90;;;11.30;73.70;;;;;;5009410;28;20543;-69
2021/08/14 06:50:00;;;;;;;7.95;3.55;;;11.30;73.40;;;;;;5009968;28;20410;-71
2021/08/14 06:52:27;;;;;;;7.10;3.67;;;11.30;73.50;;;;;;5007868;28;20033;-70
2021/08/14 06:54:54;;;;;;;4.68;3.08;;;11.30;73.40;;;;;;5013299;28;20083;-70
2021/08/14 06:57:20;;;;;;;6.10;2.75;;;11.40;73.50;;;;;;5015055;28;20987;-69
2021/08/14 06:59:47;;;;;;;7.20;3.65;;;11.40;73.50;;;;;;5010693;28;20032;-69
2021/08/14 07:02:16;;;;;;;8.13;3.17;;;11.50;73.60;;;;;;5009300;28;20037;-69
2021/08/14 07:04:43;;;;;;;9.02;3.88;;;11.50;73.40;;;;;;5010673;28;20100;-69
2021/08/14 07:07:09;;;;;;;8.88;3.25;;;11.60;73.30;;;;;;5014264;28;20068;-70
2021/08/14 07:09:58;;;;;;;10.13;2.90;;;11.70;73.30;;;;;;5012797;28;20021;-70
2021/08/14 07:12:25;;;;;;;7.90;2.75;;;11.70;73.30;;;;;;5013100;28;20403;-72
2021/08/14 07:14:52;;;;;;;9.90;3.35;;;11.80;73.10;;;;;;5013172;28;20029;-68
2021/08/14 07:17:43;;;;;;;7.15;2.92;;;11.90;73.00;;;;;;5003447;28;20049;-70
2021/08/14 07:20:10;;;;;;;8.82;2.35;;;12.00;72.70;;;;;;4997442;28;20037;-68
2021/08/14 07:22:36;;;;;;;6.70;2.78;;;12.10;72.30;;;;;;5011286;28;20041;-67
2021/08/14 07:25:03;;;;;;;8.95;2.25;;;12.10;71.80;;;;;;5011265;28;20100;-68
2021/08/14 07:27:30;;;;;;;5.88;4.13;;;12.20;71.60;;;;;;5013987;28;20028;-67
2021/08/14 07:30:36;;;;;;;7.72;1.92;;;12.30;71.50;;;;;;5006372;28;20076;-68
2021/08/14 07:33:21;;;;;;;5.28;1.83;;;12.40;71.40;;;;;;5011361;28;20026;-71
2021/08/14 07:35:47;;;;;;;4.47;2.25;;;12.50;71.00;;;;;;4996648;28;20120;-68
2021/08/14 07:38:15;;;;;;;13.63;3.25;;;12.50;70.80;;;;;;5016229;28;20033;-68
2021/08/14 07:40:42;;;;;;;7.40;2.10;;;12.60;70.30;;;;;;5015867;28;20091;-69
2021/08/14 07:43:48;;;;;;;7.20;2.28;;;12.60;70.20;;;;;;5015506;28;20077;-69
2021/08/14 07:46:14;;;;;;;7.57;1.50;;;12.70;70.00;;;;;;5012503;28;20018;-68
2021/08/14 07:48:41;;;;;;;4.32;1.83;;;12.80;69.60;;;;;;5016090;28;20030;-69
2021/08/14 07:51:07;;;;;;;3.78;1.67;;;12.90;70.20;;;;;;5016633;28;20025;-69
2021/08/14 07:53:34;;;;;;;3.47;2.85;;;13.00;69.10;;;;;;5014780;28;20109;-67
2021/08/14 07:56:01;;;;;;;2.35;1.40;;;13.00;67.90;;;;;;5014633;28;20029;-68
2021/08/14 07:58:27;;;;;;;6.45;1.48;;;13.10;67.70;;;;;;5017128;28;20079;-70
2021/08/14 08:00:55;;;;;;;5.30;2.28;;;13.20;67.10;;;;;;5015822;28;20021;-71
2021/08/14 08:03:21;;;;;;;2.58;1.70;;;13.20;66.60;;;;;;5015726;28;20461;-69
2021/08/14 08:05:48;;;;;;;4.40;1.50;;;13.30;66.00;;;;;;5015378;28;20427;-71
2021/08/14 08:08:14;;;;;;;4.40;2.85;;;13.30;65.40;;;;;;5015554;28;20013;-67
2021/08/14 08:10:41;;;;;;;6.22;1.50;;;13.30;65.00;;;;;;5014348;28;20018;-69
2021/08/14 08:13:07;;;;;;;5.93;1.63;;;13.40;63.60;;;;;;4994717;28;20545;-69
2021/08/14 08:15:35;;;;;;;3.63;2.08;;;13.50;62.60;;;;;;4993709;28;20496;-72
2021/08/14 08:18:01;;;;;;;2.42;1.20;;;13.50;62.40;;;;;;4995439;28;20023;-70
2021/08/14 08:20:28;;;;;;;4.15;2.20;;;13.60;62.50;;;;;;4994001;28;20042;-71
2021/08/14 08:22:55;;;;;;;4.60;2.00;;;13.70;61.30;;;;;;4994667;28;20493;-70
2021/08/14 08:25:22;;;;;;;4.40;1.88;;;13.70;60.90;;;;;;4994615;28;20463;-70
2021/08/14 08:27:50;;;;;;;2.38;1.80;;;13.80;61.00;;;;;;4993478;28;20473;-70
2021/08/14 08:30:18;;;;;;;6.55;4.38;;;13.90;60.80;;;;;;4995118;28;20014;-69
2021/08/14 08:32:45;;;;;;;5.38;2.22;;;13.90;60.90;;;;;;4993881;28;20023;-71
2021/08/14 08:35:12;;;;;;;5.00;2.08;;;14.00;60.80;;;;;;4993449;28;20101;-70
2021/08/14 08:37:40;;;;;;;3.50;2.17;;;14.10;59.40;;;;;;4994781;28;20026;-70
2021/08/14 08:40:08;;;;;;;2.60;2.40;;;14.10;58.80;;;;;;4990439;28;20022;-70
2021/08/14 08:43:14;;;;;;;5.43;2.28;;;14.20;59.20;;;;;;4993297;28;20042;-71
2021/08/14 08:45:40;;;;;;;4.88;2.22;;;14.30;58.70;;;;;;4994074;28;20033;-73
2021/08/14 08:48:08;;;;;;;3.50;1.70;;;14.40;58.10;;;;;;4991650;28;20026;-69
2021/08/14 08:50:35;;;;;;;4.97;2.05;;;14.40;57.60;;;;;;4995123;28;20085;-69
2021/08/14 08:53:04;;;;;;;5.60;2.15;;;14.50;57.50;;;;;;4991853;28;20026;-70
2021/08/14 08:55:33;;;;;;;4.63;2.17;;;14.60;56.90;;;;;;4994713;28;20018;-68
2021/08/14 08:58:00;;;;;;;4.13;1.92;;;14.60;56.50;;;;;;4993270;28;20030;-69
2021/08/14 09:00:26;;;;;;;5.82;2.03;;;14.70;57.70;;;;;;4994857;28;20027;-69
2021/08/14 09:03:06;;;;;;;6.28;1.65;;;14.80;56.60;;;;;;4994443;28;20615;-68
2021/08/14 09:05:33;;;;;;;3.33;1.63;;;14.90;55.80;;;;;;4993031;28;20556;-68
2021/08/14 09:08:10;;;;;;;1.92;1.35;;;15.00;55.20;;;;;;4995512;28;20103;-68
2021/08/14 09:10:37;;;;;;;2.85;1.52;;;15.10;55.60;;;;;;4993869;28;20022;-68
2021/08/14 09:13:18;;;;;;;3.70;1.30;;;15.10;55.00;;;;;;5013760;28;20133;-70
2021/08/14 09:15:45;;;;;;;3.92;2.00;;;15.20;54.80;;;;;;5012440;28;20041;-68
2021/08/14 09:18:14;;;;;;;3.25;1.25;;;15.30;53.10;;;;;;5013800;28;20018;-67
2021/08/14 09:20:53;;;;;;;2.78;1.15;;;15.40;52.50;;;;;;5014380;28;20493;-69
2021/08/14 09:23:24;;;;;;;1.65;0.95;;;15.50;53.00;;;;;;5012894;28;20076;-68
2021/08/14 09:25:55;;;;;;;3.10;0.95;;;15.60;51.90;;;;;;5013989;28;20029;-69
2021/08/14 09:28:34;;;;;;;2.05;1.00;;;15.70;51.40;;;;;;5010020;28;20034;-69
2021/08/14 09:31:03;;;;;;;1.80;1.45;;;15.70;50.90;;;;;;5013213;28;20022;-69
2021/08/14 09:33:37;;;;;;;3.40;0.80;;;15.90;51.00;;;;;;5013751;28;20080;-69
2021/08/14 09:36:09;;;;;;;3.00;1.35;;;15.90;51.00;;;;;;5014915;28;20491;-70
2021/08/14 09:38:49;;;;;;;2.85;1.23;;;16.10;50.30;;;;;;5016262;28;20511;-70
2021/08/14 09:41:21;;;;;;;2.97;1.00;;;16.20;49.20;;;;;;5012449;28;20485;-71
2021/08/14 09:43:50;;;;;;;3.28;1.20;;;16.30;47.20;;;;;;5013939;28;20014;-69
2021/08/14 09:46:16;;;;;;;1.50;0.82;;;16.30;46.10;;;;;;5013028;28;20030;-69
2021/08/14 09:48:52;;;;;;;4.68;1.10;;;16.40;47.10;;;;;;5012858;28;20017;-70
2021/08/14 09:52:04;;;;;;;2.97;1.00;;;16.50;46.60;;;;;;5011945;28;20100;-69
2021/08/14 09:55:16;;;;;;;3.85;0.75;;;16.60;46.10;;;;;;5015563;28;20025;-68
2021/08/14 09:58:24;;;;;;;1.38;0.80;;;16.80;46.10;;;;;;5014790;28;20068;-69
2021/08/14 10:01:00;;;;;;;1.55;0.57;;;16.90;44.30;;;;;;5013282;28;20100;-68
2021/08/14 10:03:30;;;;;;;2.30;0.77;;;17.00;44.10;;;;;;4997577;28;20057;-71
2021/08/14 10:06:02;;;;;;;1.90;0.50;;;17.10;44.30;;;;;;5011915;28;20104;-69
2021/08/14 10:08:32;;;;;;;3.08;1.27;;;17.20;44.60;;;;;;5010673;28;20026;-68
2021/08/14 10:10:59;;;;;;;1.17;0.60;;;17.30;43.60;;;;;;5007653;28;20030;-68
2021/08/14 10:13:26;;;;;;;4.60;0.90;;;17.40;44.10;;;;;;5012650;28;20034;-68
2021/08/14 10:15:53;;;;;;;1.95;0.38;;;17.50;44.90;;;;;;5010906;28;20024;-68
2021/08/14 10:18:19;;;;;;;1.27;0.65;;;17.60;44.60;;;;;;5017318;28;20020;-68
2021/08/14 10:20:47;;;;;;;0.98;0.40;;;17.70;43.50;;;;;;5013386;28;20044;-69
2021/08/14 10:23:22;;;;;;;4.28;0.70;;;17.80;42.70;;;;;;5010035;28;20496;-68
2021/08/14 10:26:01;;;;;;;2.83;0.80;;;17.90;42.40;;;;;;5013205;28;20084;-67
2021/08/14 10:28:45;;;;;;;3.00;0.60;;;18.00;42.30;;;;;;5011330;28;20384;-67
2021/08/14 10:31:30;;;;;;;0.65;0.30;;;18.10;41.40;;;;;;5004812;28;20079;-68
2021/08/14 10:34:12;;;;;;;2.07;0.60;;;18.20;41.30;;;;;;5013644;28;20084;-68
2021/08/14 10:36:41;;;;;;;3.28;0.80;;;18.20;41.00;;;;;;5013342;28;20018;-72
2021/08/14 10:39:22;;;;;;;3.08;0.80;;;18.30;41.30;;;;;;5014122;28;20377;-67
2021/08/14 10:41:53;;;;;;;7.53;2.15;;;18.40;41.50;;;;;;5013508;28;20567;-67
2021/08/14 10:44:42;;;;;;;4.40;0.70;;;18.40;41.50;;;;;;5008707;28;20385;-69
2021/08/14 10:47:33;;;;;;;2.53;0.88;;;18.50;42.70;;;;;;5013586;28;20014;-71
2021/08/14 10:50:00;;;;;;;1.67;0.70;;;18.60;42.30;;;;;;5010507;28;20022;-68
2021/08/14 10:52:37;;;;;;;19.25;11.43;;;18.70;42.30;;;;;;5010847;28;20093;-71
2021/08/14 10:55:43;;;;;;;12.10;4.93;;;18.80;42.50;;;;;;5010789;28;20028;-68
2021/08/14 10:58:25;;;;;;;2.70;0.82;;;18.80;42.60;;;;;;5005575;28;20124;-71
2021/08/14 11:00:54;;;;;;;5.53;1.33;;;18.90;43.40;;;;;;5012347;28;20033;-70
2021/08/14 11:03:31;;;;;;;2.35;0.65;;;19.00;43.60;;;;;;5009293;28;20018;-70
2021/08/14 11:06:25;;;;;;;1.48;0.52;;;19.00;43.10;;;;;;5011956;28;20013;-71
2021/08/14 11:09:18;;;;;;;1.10;0.63;;;19.10;42.50;;;;;;5012296;28;20397;-70
2021/08/14 11:11:58;;;;;;;0.95;0.57;;;19.10;42.10;;;;;;5001608;28;20552;-71
2021/08/14 11:15:02;;;;;;;4.93;0.98;;;19.20;40.20;;;;;;5013294;28;20034;-70
2021/08/14 11:17:36;;;;;;;4.38;1.00;;;19.20;40.10;;;;;;5010312;28;20514;-68
2021/08/14 11:20:22;;;;;;;1.20;0.60;;;19.30;40.20;;;;;;5006978;28;20026;-73
2021/08/14 11:23:35;;;;;;;4.45;0.73;;;19.40;39.60;;;;;;5010753;28;20030;-68
2021/08/14 11:26:01;;;;;;;3.00;0.88;;;19.40;40.00;;;;;;5009138;28;20045;-70
2021/08/14 11:28:28;;;;;;;10.60;5.70;;;19.50;40.10;;;;;;5010831;28;20504;-70
2021/08/14 11:31:04;;;;;;;11.48;5.88;;;19.50;39.90;;;;;;5011291;28;20057;-67
2021/08/14 11:33:31;;;;;;;2.65;1.73;;;19.50;40.30;;;;;;5009123;28;20393;-66
2021/08/14 11:36:07;;;;;;;3.28;0.75;;;19.50;40.80;;;;;;5011635;28;20033;-69
2021/08/14 11:38:36;;;;;;;15.15;8.70;;;19.60;41.10;;;;;;5010610;28;20029;-72
2021/08/14 11:41:13;;;;;;;5.15;4.22;;;19.60;41.60;;;;;;4992862;28;20080;-68
2021/08/14 11:43:42;;;;;;;2.95;0.60;;;19.70;40.90;;;;;;5012559;28;20014;-70
2021/08/14 11:46:09;;;;;;;2.33;0.50;;;19.70;40.60;;;;;;5010895;28;20029;-68
2021/08/14 11:48:44;;;;;;;2.38;0.65;;;19.70;40.80;;;;;;5012455;28;20381;-66
2021/08/14 11:51:22;;;;;;;0.98;0.40;;;19.70;41.40;;;;;;5010782;28;20089;-68
2021/08/14 11:54:01;;;;;;;2.15;0.70;;;19.80;41.50;;;;;;5011816;28;20469;-67
2021/08/14 11:56:29;;;;;;;3.80;1.23;;;19.80;41.70;;;;;;5008509;28;20018;-70
2021/08/14 11:58:56;;;;;;;1.40;0.85;;;19.90;41.80;;;;;;5012521;28;20484;-69
2021/08/14 12:02:02;;;;;;;1.80;0.80;;;19.90;41.60;;;;;;5011390;28;20038;-73
2021/08/14 12:04:33;;;;;;;0.70;0.50;;;20.00;41.70;;;;;;5006817;28;20061;-75
2021/08/14 12:06:59;;;;;;;0.88;0.45;;;20.00;41.10;;;;;;4988916;28;20647;-72
2021/08/14 12:09:26;;;;;;;5.07;0.90;;;20.00;41.10;;;;;;5016026;28;20141;-76
2021/08/14 12:11:54;;;;;;;1.38;0.95;;;20.10;41.00;;;;;;5011053;28;20056;-71
2021/08/14 12:14:24;;;;;;;2.15;0.80;;;20.00;40.80;;;;;;5011415;28;20388;-72
2021/08/14 12:16:57;;;;;;;1.10;0.57;;;20.10;40.50;;;;;;5011700;28;20393;-71
2021/08/14 12:19:24;;;;;;;3.95;2.10;;;20.10;40.20;;;;;;5012126;28;20067;-69
2021/08/14 12:22:13;;;;;;;2.45;0.93;;;20.10;39.60;;;;;;5013373;28;20022;-75
2021/08/14 12:24:44;;;;;;;0.77;0.40;;;20.10;39.30;;;;;;5015900;28;20053;-73
2021/08/14 12:27:24;;;;;;;19.80;10.48;;;20.20;39.00;;;;;;4992916;28;20060;-72
2021/08/14 12:29:51;;;;;;;3.75;1.40;;;20.20;39.00;;;;;;5011072;28;20108;-68
2021/08/14 12:32:18;;;;;;;2.13;0.60;;;20.20;38.90;;;;;;5015770;28;20017;-72
2021/08/14 12:34:45;;;;;;;4.53;0.70;;;20.20;38.80;;;;;;5016324;28;20536;-70
2021/08/14 12:37:16;;;;;;;4.55;0.57;;;20.20;38.50;;;;;;5013529;28;20131;-72
2021/08/14 12:39:55;;;;;;;3.65;3.13;;;20.20;39.00;;;;;;5011605;28;20030;-72
2021/08/14 12:42:36;;;;;;;2.05;0.65;;;20.20;39.10;;;;;;5012684;28;20400;-70
2021/08/14 12:45:18;;;;;;;0.85;0.32;;;20.20;38.60;;;;;;5016151;28;20022;-72
2021/08/14 12:47:47;;;;;;;2.25;1.60;;;20.20;38.80;;;;;;5016724;28;20030;-73
2021/08/14 12:50:25;;;;;;;0.88;0.60;;;20.30;39.10;;;;;;5013150;28;20006;-73
2021/08/14 12:53:25;;;;;;;0.98;0.65;;;20.20;39.20;;;;;;5016578;28;20056;-74
2021/08/14 12:55:52;;;;;;;1.67;0.47;;;20.30;39.20;;;;;;5012056;28;20018;-72
2021/08/14 12:58:25;;;;;;;10.20;6.57;;;20.30;39.00;;;;;;5014719;28;20021;-70
2021/08/14 13:00:53;;;;;;;4.47;1.60;;;20.30;38.80;;;;;;5014477;28;20034;-74
2021/08/14 13:03:20;;;;;;;3.05;0.85;;;20.30;39.50;;;;;;5013395;28;20064;-72
2021/08/14 13:06:26;;;;;;;2.50;0.98;;;20.30;40.10;;;;;;4992299;28;20026;-71
2021/08/14 13:09:32;;;;;;;5.70;0.60;;;20.30;40.40;;;;;;5012852;28;20017;-72